Terminal Aerodrome Forecast
Issued by NWS

Home | Current Version | Previous Version | Text Only | Print | Product List | Glossary On
Versions: 1 2 3 4 5 6 7 8 9 10 11 12 13 14 15 16 17 18 19 20 21 22 23 24 25 26 27 28
902
FTUS43 KGRB 260520
TAFAUW
TAF
KAUW 260520Z 2606/2706 31005KT 5SM BR SKC
      TEMPO 2606/2607 3SM BR
     FM260800 31009KT P6SM SKC
     FM261400 32013G21KT P6SM SKC
     FM262000 32014G24KT P6SM SKC
     FM270100 33005KT P6SM SKC=

USA.gov is the U.S. government's official web portal to all federal, state and local government web resources and services.